createdAt,value
2018-08-09T10:24:14.467Z,58.60
2018-08-09T10:26:42.922Z,58.30
2018-08-09T10:29:11.370Z,58.40
2018-08-09T10:31:39.846Z,58.50
2018-08-09T10:34:08.377Z,59.00
2018-08-09T10:36:36.823Z,59.70
2018-08-09T10:39:08.631Z,60.00
2018-08-09T10:41:37.238Z,62.40
2018-08-09T10:44:05.745Z,64.90
2018-08-09T10:46:34.191Z,67.30
2018-08-09T10:49:02.656Z,69.50
2018-08-09T10:51:31.091Z,71.00
2018-08-09T10:53:59.587Z,71.40
2018-08-09T11:01:24.322Z,72.40
2018-08-09T11:06:21.308Z,73.20
2018-08-09T11:08:49.765Z,73.50
2018-08-09T11:13:46.796Z,73.50
2018-08-09T11:16:28.100Z,72.80
2018-08-09T11:18:56.515Z,73.10
2018-08-09T11:21:24.972Z,74.50
2018-08-09T11:23:53.429Z,75.10
2018-08-09T11:26:21.853Z,75.10
2018-08-09T11:28:50.780Z,75.40
2018-08-09T11:31:19.316Z,75.90
2018-08-09T11:33:47.828Z,77.10
2018-08-09T11:36:16.263Z,77.10
2018-08-09T11:41:12.843Z,79.90
2018-08-09T11:43:41.315Z,80.10
2018-08-09T11:48:37.918Z,81.40
2018-08-09T11:51:06.363Z,82.10
2018-08-09T11:53:34.828Z,82.30
2018-08-09T11:58:31.454Z,82.30
2018-08-09T12:01:00.262Z,82.80
2018-08-09T12:03:28.763Z,83.20
2018-08-09T12:05:57.209Z,83.50
2018-08-09T12:08:25.658Z,83.70
2018-08-09T12:10:54.150Z,84.10
2018-08-09T12:13:22.687Z,84.20
2018-08-09T12:15:51.115Z,84.70
2018-08-09T12:18:19.562Z,86.60
2018-08-09T12:20:48.052Z,88.00
2018-08-09T12:23:16.526Z,89.20
2018-08-09T12:25:44.995Z,90.10
2018-08-09T12:30:41.589Z,91.20
2018-08-09T12:39:56.592Z,92.20
2018-08-09T12:42:25.173Z,91.80
2018-08-09T12:44:53.630Z,92.30
2018-08-09T12:47:22.080Z,92.40
2018-08-09T12:49:50.544Z,92.70
2018-08-09T12:52:19.114Z,92.70
2018-08-09T12:54:47.543Z,92.80
2018-08-09T12:59:44.183Z,93.60
2018-08-09T13:02:12.671Z,93.70
2018-08-09T13:04:41.110Z,93.50
2018-08-09T13:07:09.564Z,93.50
2018-08-09T13:09:38.051Z,93.90
2018-08-09T13:12:06.633Z,94.20
2018-08-09T13:14:35.067Z,93.80
2018-08-09T13:17:03.519Z,93.40
2018-08-09T13:19:31.962Z,93.40
2018-08-09T13:22:00.451Z,93.50
2018-08-09T13:24:28.893Z,93.60
2018-08-09T13:26:57.342Z,94.30
2018-08-09T13:29:25.803Z,93.80
2018-08-09T13:31:54.222Z,93.60
2018-08-09T13:34:22.655Z,93.80
2018-08-09T13:39:19.240Z,93.80
2018-08-09T13:41:47.684Z,93.80
2018-08-09T13:44:16.226Z,94.00
2018-08-09T13:46:44.670Z,94.20
2018-08-09T13:49:13.159Z,94.50
2018-08-09T13:51:41.591Z,94.20
2018-08-09T13:54:10.079Z,94.40
2018-08-09T13:56:38.531Z,94.40
2018-08-09T13:59:06.945Z,95.00
2018-08-09T14:01:35.404Z,94.70
2018-08-09T14:04:03.925Z,95.20
2018-08-09T14:06:32.454Z,94.90
2018-08-09T14:09:00.870Z,95.00
2018-08-09T14:11:29.304Z,95.10
2018-08-09T14:13:57.852Z,95.10
2018-08-09T14:18:54.530Z,94.80
2018-08-09T14:21:22.986Z,95.10
2018-08-09T14:23:51.455Z,94.80
2018-08-09T14:26:19.887Z,95.30
2018-08-09T14:28:48.361Z,96.10
2018-08-09T14:31:16.803Z,95.00
2018-08-09T14:36:13.473Z,96.10
2018-08-09T14:41:10.075Z,95.40
2018-08-09T14:43:38.639Z,95.10
2018-08-09T14:46:07.149Z,95.60
2018-08-09T14:48:35.621Z,95.50
2018-08-09T14:51:04.294Z,95.70
2018-08-09T14:53:32.842Z,95.30
2018-08-09T14:58:29.405Z,95.60
2018-08-09T15:00:57.882Z,95.70
2018-08-09T15:05:54.598Z,95.80
2018-08-09T15:08:23.037Z,95.30
2018-08-09T15:10:51.462Z,95.40
2018-08-09T15:13:20.009Z,95.60
2018-08-09T15:15:48.451Z,95.60
2018-08-09T15:20:45.118Z,96.10
2018-08-09T15:25:41.807Z,95.20
2018-08-09T15:28:10.270Z,95.30
2018-08-09T15:30:38.801Z,95.40
2018-08-09T15:33:07.295Z,96.00
2018-08-09T15:35:35.775Z,95.90
2018-08-09T15:38:04.335Z,95.90
2018-08-09T15:40:32.727Z,96.00
2018-08-09T15:43:01.269Z,95.40
2018-08-09T15:45:29.706Z,95.50
2018-08-09T15:47:58.192Z,95.20
2018-08-09T15:50:26.655Z,95.20
2018-08-09T15:52:55.183Z,95.50
2018-08-09T15:55:23.655Z,95.60
2018-08-09T15:57:52.203Z,95.50
2018-08-09T16:00:24.322Z,95.40
2018-08-09T16:02:52.914Z,95.40
2018-08-09T16:05:21.414Z,95.60
2018-08-09T16:07:49.877Z,95.10
2018-08-09T16:10:18.802Z,94.90
2018-08-09T16:13:21.310Z,94.80
2018-08-09T16:15:49.749Z,94.50
2018-08-09T16:18:18.215Z,94.70
2018-08-09T16:20:46.680Z,95.30
2018-08-09T16:23:15.176Z,95.60
2018-08-09T16:25:44.013Z,95.70
2018-08-09T16:28:12.467Z,95.60
2018-08-09T16:30:41.291Z,95.40
2018-08-09T16:33:10.002Z,95.10
2018-08-09T16:35:39.391Z,95.20
2018-08-09T16:38:08.026Z,95.30
2018-08-09T16:40:37.977Z,95.50
2018-08-09T16:43:06.893Z,95.90
2018-08-09T16:45:35.496Z,95.30
2018-08-09T16:48:04.648Z,95.30
2018-08-09T16:50:33.105Z,95.00
2018-08-09T16:53:03.496Z,94.70
2018-08-09T16:55:32.044Z,94.50
2018-08-09T16:58:00.572Z,94.30
2018-08-09T17:00:29.320Z,94.30
2018-08-09T17:02:58.097Z,94.50
2018-08-09T17:05:27.576Z,94.60
2018-08-09T17:07:56.154Z,94.80
2018-08-09T17:10:26.198Z,94.90
2018-08-09T17:12:55.172Z,95.10
2018-08-09T17:15:25.756Z,95.30
2018-08-09T17:17:55.032Z,95.40
2018-08-09T17:20:28.215Z,95.60
2018-08-09T17:43:07.118Z,93.90
2018-08-09T17:45:36.063Z,93.80
2018-08-09T17:48:04.823Z,93.90
2018-08-09T17:50:33.261Z,93.70
2018-08-09T18:13:11.263Z,94.90
2018-08-09T18:15:39.741Z,95.10
2018-08-09T18:18:08.169Z,95.00
2018-08-09T18:20:37.616Z,95.20
2018-08-09T18:43:15.508Z,95.00
2018-08-09T18:45:43.918Z,95.10
2018-08-09T18:48:12.337Z,95.20
2018-08-09T18:50:40.786Z,95.20
2018-08-09T19:13:21.378Z,95.00
2018-08-09T19:15:49.810Z,94.90
2018-08-09T19:18:18.275Z,95.00
2018-08-09T19:20:46.741Z,95.10
2018-08-09T19:23:15.256Z,94.90
2018-08-09T19:25:43.679Z,94.90
2018-08-09T19:28:12.145Z,94.80
2018-08-09T19:30:40.697Z,94.80
2018-08-09T19:33:09.255Z,94.70
2018-08-09T19:35:37.730Z,94.90
2018-08-09T19:38:06.267Z,94.70
2018-08-09T19:40:34.747Z,95.00
2018-08-09T19:43:03.271Z,95.40
2018-08-09T19:45:31.735Z,95.10
2018-08-09T19:48:00.230Z,95.10
2018-08-09T19:50:28.707Z,95.10
2018-08-09T19:52:57.215Z,95.20
2018-08-09T19:55:26.528Z,95.20
2018-08-09T19:57:55.021Z,95.00
2018-08-09T20:00:25.147Z,95.10
2018-08-09T20:02:53.726Z,95.20
2018-08-09T20:05:22.268Z,95.40
2018-08-09T20:07:50.784Z,95.30
2018-08-09T20:10:19.214Z,95.40
2018-08-09T20:12:48.277Z,95.20
2018-08-09T20:15:20.028Z,95.20
2018-08-09T20:17:48.519Z,95.10
2018-08-09T20:20:18.533Z,95.10
2018-08-09T20:22:47.071Z,95.00
2018-08-09T20:25:15.813Z,95.20
2018-08-09T20:27:44.893Z,95.30
2018-08-09T20:30:15.015Z,95.10
2018-08-09T20:32:44.012Z,95.20
2018-08-09T20:35:14.836Z,95.00
2018-08-09T20:37:44.694Z,94.90
2018-08-09T20:40:13.556Z,94.80
2018-08-09T20:42:42.364Z,94.80
2018-08-09T20:45:12.479Z,94.60
2018-08-09T20:47:40.918Z,94.80
2018-08-09T20:50:12.909Z,95.00
2018-08-09T20:52:42.200Z,95.30
2018-08-09T20:55:13.750Z,94.70
2018-08-09T20:57:43.140Z,94.60
2018-08-09T21:00:17.468Z,94.50
2018-08-09T21:02:47.182Z,94.60
2018-08-09T21:05:24.201Z,94.40
2018-08-09T21:07:53.690Z,94.30
2018-08-09T21:10:22.569Z,94.60
2018-08-09T21:12:51.118Z,94.60
2018-08-09T21:15:20.185Z,94.60
2018-08-09T21:17:48.655Z,94.70
2018-08-09T21:20:17.170Z,94.80
2018-08-09T21:22:46.882Z,94.80
2018-08-09T21:25:15.326Z,94.90
2018-08-09T21:27:44.191Z,94.70
2018-08-09T21:30:15.359Z,94.70
2018-08-09T21:32:44.230Z,94.70
2018-08-09T21:35:12.686Z,94.50
2018-08-09T21:37:41.836Z,94.60
2018-08-09T21:40:11.323Z,94.60
2018-08-09T21:42:40.024Z,94.60
2018-08-09T21:45:10.546Z,94.60
2018-08-09T21:47:39.055Z,94.50
2018-08-09T21:50:10.020Z,94.60
2018-08-09T21:52:38.744Z,94.60
2018-08-09T21:55:10.570Z,94.50
2018-08-09T21:57:39.158Z,94.60
2018-08-09T22:01:13.495Z,94.60
2018-08-09T22:03:42.034Z,94.60
2018-08-09T22:06:15.743Z,94.60
2018-08-09T22:08:49.516Z,94.50
2018-08-09T22:11:23.252Z,94.30
2018-08-09T22:13:57.230Z,94.30
2018-08-09T22:16:31.027Z,94.30
2018-08-09T22:19:04.737Z,94.40
2018-08-09T22:21:38.680Z,94.30
2018-08-09T22:24:07.179Z,94.30
2018-08-09T22:26:35.618Z,94.30
2018-08-09T22:29:04.139Z,94.30
2018-08-09T22:31:32.563Z,94.30
2018-08-09T22:34:01.135Z,94.00
2018-08-09T22:36:29.585Z,94.10
2018-08-09T22:38:58.037Z,94.30
2018-08-09T22:41:26.486Z,94.10
2018-08-09T22:43:54.939Z,94.00
2018-08-09T22:46:23.398Z,94.10
2018-08-09T22:48:51.836Z,94.30
2018-08-09T22:51:20.324Z,94.30
2018-08-09T22:53:48.866Z,94.20
2018-08-09T22:56:17.295Z,94.20
2018-08-09T22:58:45.735Z,94.00
2018-08-09T23:01:14.185Z,94.00
2018-08-09T23:03:42.700Z,94.10
2018-08-09T23:06:11.153Z,94.20
2018-08-09T23:08:39.599Z,94.10
2018-08-09T23:11:08.132Z,94.00
2018-08-09T23:13:36.648Z,94.10
2018-08-09T23:16:05.808Z,93.80
2018-08-09T23:18:34.226Z,93.60
2018-08-09T23:21:02.644Z,93.70
2018-08-09T23:23:31.142Z,93.80
2018-08-09T23:25:59.570Z,93.90
2018-08-09T23:28:28.064Z,93.70
2018-08-09T23:30:56.538Z,93.60
2018-08-09T23:33:25.710Z,93.60
2018-08-09T23:35:54.363Z,93.50
2018-08-09T23:38:22.806Z,93.50
2018-08-09T23:40:51.245Z,93.40
2018-08-09T23:43:19.765Z,93.10
2018-08-09T23:45:48.218Z,93.10
2018-08-09T23:48:16.667Z,92.80
2018-08-09T23:50:45.095Z,92.90
2018-08-09T23:53:13.583Z,93.00
2018-08-09T23:55:42.033Z,92.80
2018-08-09T23:58:10.452Z,92.90
